TimeEDT,TemperatureF,Dew PointF,Humidity,Sea Level PressureIn,VisibilityMPH,Wind Direction,Wind SpeedMPH,Gust SpeedMPH,PrecipitationIn,Events,Conditions,WindDirDegrees,DateUTC
12:15 AM,41.0,35.1,79,29.66,10.0,WNW,5.8,-,N/A,,Overcast,300,2012-11-01 04:15:00
12:35 AM,41.0,35.1,79,29.66,10.0,WNW,6.9,-,N/A,,Overcast,290,2012-11-01 04:35:00
1:15 AM,41.0,34.7,78,29.66,10.0,WNW,11.5,17.3,N/A,,Overcast,290,2012-11-01 05:15:00
1:35 AM,40.8,34.7,79,29.66,10.0,WNW,11.5,18.4,N/A,,Overcast,290,2012-11-01 05:35:00
2:15 AM,40.5,34.0,78,29.66,10.0,WNW,10.4,17.3,N/A,,Overcast,290,2012-11-01 06:15:00
2:35 AM,40.3,34.0,78,29.66,10.0,WNW,10.4,-,N/A,,Overcast,300,2012-11-01 06:35:00
2:55 AM,40.1,34.2,79,29.66,10.0,West,11.5,18.4,N/A,,Overcast,280,2012-11-01 06:55:00
3:15 AM,40.1,34.0,79,29.67,10.0,WNW,11.5,-,N/A,,Overcast,290,2012-11-01 07:15:00
3:35 AM,40.1,33.8,78,29.67,10.0,WNW,8.1,17.3,N/A,,Overcast,290,2012-11-01 07:35:00
3:55 AM,40.1,33.8,78,29.67,10.0,West,10.4,18.4,N/A,,Overcast,280,2012-11-01 07:55:00
4:15 AM,40.1,33.8,78,29.66,10.0,WNW,10.4,-,N/A,,Overcast,300,2012-11-01 08:15:00
4:35 AM,40.1,33.4,77,29.66,10.0,WNW,8.1,17.3,N/A,,Overcast,300,2012-11-01 08:35:00
4:55 AM,39.9,33.6,78,29.67,10.0,West,11.5,-,N/A,,Overcast,280,2012-11-01 08:55:00
5:15 AM,39.7,33.8,79,29.67,10.0,West,12.7,18.4,N/A,,Overcast,280,2012-11-01 09:15:00
5:35 AM,39.7,33.8,79,29.67,10.0,West,10.4,-,N/A,,Overcast,270,2012-11-01 09:35:00
6:15 AM,39.4,33.8,80,29.68,10.0,West,11.5,16.1,N/A,,Overcast,280,2012-11-01 10:15:00
6:35 AM,38.8,33.3,80,29.68,10.0,West,9.2,-,N/A,,Overcast,270,2012-11-01 10:35:00
6:55 AM,37.9,33.1,83,29.68,10.0,West,10.4,-,N/A,,Overcast,280,2012-11-01 10:55:00
7:15 AM,37.8,33.4,84,29.68,10.0,West,9.2,-,N/A,,Overcast,280,2012-11-01 11:15:00
7:35 AM,37.8,33.4,84,29.69,10.0,West,9.2,-,N/A,,Overcast,280,2012-11-01 11:35:00
8:15 AM,37.9,33.8,85,29.70,10.0,West,5.8,9.2,N/A,,Overcast,280,2012-11-01 12:15:00
8:35 AM,37.9,34.0,86,29.71,10.0,West,6.9,-,N/A,,Overcast,270,2012-11-01 12:35:00
8:55 AM,38.3,34.0,84,29.71,10.0,WNW,4.6,-,N/A,,Overcast,290,2012-11-01 12:55:00
9:34 AM,39.2,32.0,75,29.72,10.0,NW,8.1,-,N/A,,Overcast,310,2012-11-01 13:34:00
9:55 AM,39.4,32.0,75,29.72,10.0,West,6.9,-,N/A,,Mostly Cloudy,280,2012-11-01 13:55:00
10:15 AM,40.6,32.2,72,29.72,10.0,West,9.2,-,N/A,,Scattered Clouds,270,2012-11-01 14:15:00
10:35 AM,41.5,30.9,66,29.72,10.0,West,11.5,-,N/A,,Scattered Clouds,280,2012-11-01 14:35:00
10:55 AM,41.7,30.2,64,29.72,10.0,NW,10.4,17.3,N/A,,Mostly Cloudy,310,2012-11-01 14:55:00
11:15 AM,42.6,30.0,61,29.72,10.0,NW,9.2,18.4,N/A,,Mostly Cloudy,310,2012-11-01 15:15:00
11:34 AM,43.9,30.0,58,29.72,10.0,WNW,13.8,19.6,N/A,,Mostly Cloudy,290,2012-11-01 15:34:00
11:55 AM,44.2,29.3,56,29.72,10.0,WNW,11.5,18.4,N/A,,Scattered Clouds,290,2012-11-01 15:55:00
12:15 PM,44.6,28.9,54,29.72,10.0,WNW,8.1,17.3,N/A,,Scattered Clouds,300,2012-11-01 16:15:00
12:35 PM,44.4,30.9,59,29.72,10.0,West,11.5,17.3,N/A,,Scattered Clouds,260,2012-11-01 16:35:00
1:15 PM,45.9,30.0,54,29.70,10.0,West,5.8,-,N/A,,Scattered Clouds,270,2012-11-01 17:15:00
1:35 PM,47.1,29.8,51,29.70,10.0,NW,10.4,17.3,N/A,,Clear,310,2012-11-01 17:35:00
1:55 PM,47.7,29.1,49,29.69,10.0,WNW,11.5,17.3,N/A,,Clear,290,2012-11-01 17:55:00
2:15 PM,47.7,29.7,50,29.69,10.0,West,10.4,16.1,N/A,,Clear,270,2012-11-01 18:15:00
2:35 PM,47.5,30.6,52,29.69,10.0,West,11.5,17.3,N/A,,Scattered Clouds,270,2012-11-01 18:35:00
3:15 PM,47.8,30.6,51,29.68,10.0,West,16.1,20.7,N/A,,Scattered Clouds,270,2012-11-01 19:15:00
3:35 PM,47.7,30.7,52,29.69,10.0,West,15.0,19.6,N/A,,Scattered Clouds,280,2012-11-01 19:35:00
3:55 PM,47.7,29.3,49,29.69,10.0,West,16.1,21.9,N/A,,Scattered Clouds,280,2012-11-01 19:55:00
4:35 PM,48.2,28.4,46,29.69,10.0,WNW,12.7,18.4,N/A,,Mostly Cloudy,300,2012-11-01 20:35:00
4:55 PM,48.4,26.2,42,29.70,10.0,NW,11.5,20.7,N/A,,Overcast,320,2012-11-01 20:55:00
5:15 PM,47.7,26.4,44,29.70,10.0,WNW,10.4,17.3,N/A,,Overcast,290,2012-11-01 21:15:00
5:35 PM,46.9,27.5,47,29.71,10.0,WNW,8.1,16.1,N/A,,Overcast,300,2012-11-01 21:35:00
5:55 PM,45.7,26.4,47,29.72,10.0,NW,11.5,19.6,N/A,,Overcast,310,2012-11-01 21:55:00
6:15 PM,44.6,27.3,51,29.73,10.0,WNW,10.4,17.3,N/A,,Overcast,300,2012-11-01 22:15:00
6:35 PM,43.7,27.1,52,29.73,10.0,WNW,10.4,17.3,N/A,,Overcast,300,2012-11-01 22:35:00
6:55 PM,42.8,27.3,54,29.74,10.0,WNW,11.5,18.4,N/A,,Overcast,300,2012-11-01 22:55:00
7:15 PM,42.3,27.5,56,29.75,10.0,NW,9.2,-,N/A,,Overcast,310,2012-11-01 23:15:00
7:35 PM,41.9,28.2,58,29.76,10.0,WNW,9.2,20.7,N/A,,Overcast,300,2012-11-01 23:35:00
7:55 PM,41.9,28.4,59,29.76,10.0,WNW,6.9,-,N/A,,Overcast,290,2012-11-01 23:55:00
8:14 PM,41.5,28.4,60,29.76,10.0,West,6.9,-,N/A,,Overcast,280,2012-11-02 00:14:00
8:35 PM,41.2,28.0,60,29.76,10.0,WNW,6.9,-,N/A,,Overcast,290,2012-11-02 00:35:00
8:55 PM,41.0,27.5,59,29.77,10.0,WNW,6.9,-,N/A,,Overcast,290,2012-11-02 00:55:00
9:15 PM,40.5,27.5,60,29.77,10.0,WNW,6.9,-,N/A,,Overcast,290,2012-11-02 01:15:00
9:35 PM,40.3,28.0,62,29.78,10.0,WNW,6.9,-,N/A,,Mostly Cloudy,290,2012-11-02 01:35:00
9:55 PM,40.1,28.2,63,29.78,10.0,West,8.1,-,N/A,,Mostly Cloudy,280,2012-11-02 01:55:00
10:15 PM,40.1,28.8,64,29.78,10.0,West,5.8,-,N/A,,Overcast,270,2012-11-02 02:15:00
10:35 PM,39.4,28.4,65,29.78,10.0,West,5.8,-,N/A,,Overcast,280,2012-11-02 02:35:00
10:55 PM,39.4,27.7,63,29.78,10.0,West,3.5,-,N/A,,Overcast,280,2012-11-02 02:55:00
11:15 PM,39.2,27.5,63,29.79,10.0,WNW,4.6,-,N/A,,Overcast,290,2012-11-02 03:15:00
11:35 PM,39.4,28.4,65,29.79,10.0,West,3.5,-,N/A,,Overcast,280,2012-11-02 03:35:00
11:55 PM,39.7,29.3,66,29.79,10.0,NW,6.9,-,N/A,,Overcast,320,2012-11-02 03:55:00